Time;durP1;ratioP1;P1;durP2;ratioP2;P2;SDS_P1;SDS_P2;PMS_P1;PMS_P2;Temp;Humidity;BMP_temperature;BMP_pressure;BME280_temperature;BME280_humidity;BME280_pressure;Samples;Min_cycle;Max_cycle;Signal;HPM_P1;HPM_P2
2022/08/19 00:03:18;;;;;;;;;;;;;;;28.03;40.60;99783.19;20441940;28;98585;-79
2022/08/19 00:13:18;;;;;;;;;;;;;;;27.86;40.91;99784.31;20442490;28;100433;-78
2022/08/19 00:23:18;;;;;;;;;;;;;;;27.87;41.17;99781.47;20439108;28;99760;-78
2022/08/19 00:33:19;;;;;;;;;;;;;;;27.87;41.13;99788.63;20451934;28;101480;-77
2022/08/19 00:43:20;;;;;;;;;;;;;;;27.88;41.16;99785.81;20445948;27;97918;-79
2022/08/19 00:53:22;;;;;;;;;;;;;;;27.85;41.06;99777.34;20438068;28;100095;-78
2022/08/19 01:03:23;;;;;;;;;;;;;;;27.84;40.94;99779.16;20454098;28;99021;-78
2022/08/19 01:13:24;;;;;;;;;;;;;;;27.61;41.58;99765.84;20455189;28;98440;-79
2022/08/19 01:23:42;;;;;;;;;;;;;;;27.42;42.08;99773.28;20444931;28;98781;-79
2022/08/19 01:33:44;;;;;;;;;;;;;;;27.42;42.10;99770.63;20459412;28;100543;-79
2022/08/19 01:43:44;;;;;;;;;;;;;;;27.30;42.44;99754.22;20456126;28;98049;-78
2022/08/19 01:53:47;;;;;;;;;;;;;;;27.17;42.94;99753.94;20461508;28;101232;-79
2022/08/19 02:03:47;;;;;;;;;;;;;;;27.28;42.90;99734.97;20456404;28;99522;-80
2022/08/19 02:13:49;;;;;;;;;;;;;;;27.32;42.86;99730.94;20474120;28;98539;-79
2022/08/19 02:23:49;;;;;;;;;;;;;;;27.39;42.73;99716.97;20458749;28;97725;-78
2022/08/19 02:33:50;;;;;;;;;;;;;;;26.99;43.74;99714.38;20439055;28;98495;-78
2022/08/19 02:43:50;;;;;;;;;;;;;;;26.98;44.12;99732.13;20444641;28;98780;-73
2022/08/19 02:53:51;;;;;;;;;;;;;;;27.19;43.59;99736.00;20429464;28;101627;-74
2022/08/19 03:03:52;;;;;;;;;;;;;;;27.30;43.31;99756.88;20422780;28;98208;-78
2022/08/19 03:13:54;;;;;;;;;;;;;;;27.38;43.23;99758.69;20413064;28;98962;-72
2022/08/19 03:23:54;;;;;;;;;;;;;;;27.39;43.11;99767.47;20431651;28;100484;-71
2022/08/19 03:33:55;;;;;;;;;;;;;;;27.36;43.45;99773.97;20461046;28;99570;-71
2022/08/19 03:43:55;;;;;;;;;;;;;;;27.36;43.14;99786.44;20484435;28;99195;-71
2022/08/19 03:53:55;;;;;;;;;;;;;;;27.31;43.37;99782.47;20465064;28;98315;-71
2022/08/19 04:03:56;;;;;;;;;;;;;;;27.29;43.62;99788.94;20477844;28;98060;-71
2022/08/19 04:13:56;;;;;;;;;;;;;;;27.26;43.57;99803.41;20461570;28;100212;-71
2022/08/19 04:23:57;;;;;;;;;;;;;;;27.24;43.32;99816.03;20470373;28;98391;-71
2022/08/19 04:33:58;;;;;;;;;;;;;;;27.22;43.54;99815.41;20474743;28;101237;-71
2022/08/19 04:43:59;;;;;;;;;;;;;;;27.23;43.17;99814.38;20503937;27;100131;-72
2022/08/19 04:54:00;;;;;;;;;;;;;;;26.99;43.85;99826.78;20457946;27;98698;-73
2022/08/19 05:04:02;;;;;;;;;;;;;;;26.84;44.32;99816.03;20467213;28;98097;-74
2022/08/19 05:14:02;;;;;;;;;;;;;;;26.72;44.44;99825.34;20461444;28;97944;-74
2022/08/19 05:24:07;;;;;;;;;;;;;;;26.69;44.60;99823.81;20464461;27;98457;-75
2022/08/19 05:34:09;;;;;;;;;;;;;;;26.66;44.82;99823.34;20466443;28;98332;-75
2022/08/19 05:44:10;;;;;;;;;;;;;;;26.74;44.75;99819.84;20463339;28;99271;-75
2022/08/19 05:54:13;;;;;;;;;;;;;;;26.79;44.87;99836.13;20457186;27;100802;-74
2022/08/19 06:04:13;;;;;;;;;;;;;;;26.84;44.77;99820.50;20455509;28;100005;-75
2022/08/19 06:14:18;;;;;;;;;;;;;;;26.93;44.50;99826.66;20449361;28;98625;-75
2022/08/19 06:24:25;;;;;;;;;;;;;;;26.98;43.86;99819.00;20438840;28;100791;-75
2022/08/19 06:34:27;;;;;;;;;;;;;;;27.07;43.60;99814.47;20449780;28;101564;-75
2022/08/19 06:44:31;;;;;;;;;;;;;;;27.16;43.89;99805.47;20445622;28;101455;-75
2022/08/19 06:54:31;;;;;;;;;;;;;;;27.27;43.41;99810.41;20435471;28;98369;-73
2022/08/19 07:04:33;;;;;;;;;;;;;;;27.38;43.34;99803.03;20455250;28;97585;-73
2022/08/19 07:14:37;;;;;;;;;;;;;;;27.53;43.10;99825.25;20444751;28;98859;-75
2022/08/19 07:24:37;;;;;;;;;;;;;;;27.60;42.76;99833.34;20464584;28;99011;-77
2022/08/19 07:34:38;;;;;;;;;;;;;;;27.67;42.91;99828.97;20472024;28;98240;-75
2022/08/19 07:44:38;;;;;;;;;;;;;;;27.77;42.59;99828.75;20482155;28;98359;-77
2022/08/19 07:54:39;;;;;;;;;;;;;;;27.86;42.23;99826.91;20519723;28;98699;-77
2022/08/19 08:15:04;;;;;;;;;;;;;;;28.04;41.13;99827.41;20513538;28;97928;-76
2022/08/19 08:25:06;;;;;;;;;;;;;;;28.11;41.34;99830.22;20516896;28;97564;-76
2022/08/19 08:35:09;;;;;;;;;;;;;;;28.20;41.12;99823.00;20502525;27;97710;-75
2022/08/19 08:45:14;;;;;;;;;;;;;;;28.26;40.58;99815.13;20443643;28;99381;-76
2022/08/19 08:55:21;;;;;;;;;;;;;;;28.34;40.32;99803.56;20445705;28;98924;-76
2022/08/19 09:05:22;;;;;;;;;;;;;;;28.44;39.49;99785.50;20398904;28;99343;-76
2022/08/19 09:15:29;;;;;;;;;;;;;;;28.50;39.41;99783.94;20402836;28;98607;-76
2022/08/19 09:25:31;;;;;;;;;;;;;;;28.59;39.15;99785.50;20453454;28;101065;-77
2022/08/19 09:35:32;;;;;;;;;;;;;;;28.66;38.76;99772.31;20485259;28;97772;-76
2022/08/19 09:45:32;;;;;;;;;;;;;;;28.71;38.63;99753.97;20487936;28;98871;-76
2022/08/19 09:55:32;;;;;;;;;;;;;;;28.77;38.74;99738.25;20500251;28;97777;-75
2022/08/19 10:05:48;;;;;;;;;;;;;;;28.83;39.13;99722.34;20501294;27;97919;-78
2022/08/19 10:15:52;;;;;;;;;;;;;;;28.90;39.34;99730.41;20503951;28;97250;-78
2022/08/19 10:25:53;;;;;;;;;;;;;;;28.92;39.65;99729.22;20506801;28;98187;-77
2022/08/19 10:36:00;;;;;;;;;;;;;;;28.95;39.89;99720.00;20513662;28;97822;-77
2022/08/19 10:46:01;;;;;;;;;;;;;;;28.97;40.01;99718.00;20513073;28;97923;-77
2022/08/19 11:06:27;;;;;;;;;;;;;;;29.08;40.96;99722.03;20500381;28;97664;-75
2022/08/19 11:16:29;;;;;;;;;;;;;;;29.17;41.97;99714.72;20510234;28;98405;-77
2022/08/19 11:26:30;;;;;;;;;;;;;;;29.25;42.68;99717.28;20503044;28;98088;-77
2022/08/19 11:36:32;;;;;;;;;;;;;;;29.30;42.84;99712.25;20518671;28;98221;-76
2022/08/19 11:46:32;;;;;;;;;;;;;;;29.35;42.81;99701.00;20509684;28;98000;-79
2022/08/19 11:56:32;;;;;;;;;;;;;;;29.39;43.37;99689.78;20469704;28;100962;-81
2022/08/19 12:06:37;;;;;;;;;;;;;;;29.43;42.84;99686.72;20503326;28;99445;-78
2022/08/19 12:16:38;;;;;;;;;;;;;;;29.47;43.69;99686.16;20507071;28;96967;-79
2022/08/19 12:26:38;;;;;;;;;;;;;;;29.48;43.17;99684.28;20491229;27;98286;-78
2022/08/19 12:36:39;;;;;;;;;;;;;;;29.50;43.47;99675.13;20486603;28;98635;-81
2022/08/19 12:46:39;;;;;;;;;;;;;;;29.54;44.05;99672.84;20491980;28;97108;-78
2022/08/19 12:56:40;;;;;;;;;;;;;;;29.59;43.59;99645.63;20494639;28;98132;-80
2022/08/19 13:06:41;;;;;;;;;;;;;;;29.63;43.64;99639.69;20484428;28;97826;-77
2022/08/19 13:16:41;;;;;;;;;;;;;;;29.66;43.50;99649.16;20482537;28;98017;-79
2022/08/19 13:26:42;;;;;;;;;;;;;;;29.70;43.47;99629.09;20495720;27;97958;-79
2022/08/19 13:36:42;;;;;;;;;;;;;;;29.73;43.20;99627.88;20489176;28;98074;-79
2022/08/19 13:46:44;;;;;;;;;;;;;;;29.74;43.81;99626.88;20502087;28;100830;-78
2022/08/19 13:56:45;;;;;;;;;;;;;;;29.72;43.57;99603.03;20497627;28;97606;-78
2022/08/19 14:06:45;;;;;;;;;;;;;;;29.73;43.51;99588.66;20486826;28;97092;-79
2022/08/19 14:16:45;;;;;;;;;;;;;;;29.74;44.02;99606.34;20485640;28;98156;-77
2022/08/19 14:26:46;;;;;;;;;;;;;;;29.75;43.67;99621.31;20475044;28;98687;-78
2022/08/19 14:36:46;;;;;;;;;;;;;;;29.77;43.59;99637.13;20481930;28;97972;-76
2022/08/19 14:46:47;;;;;;;;;;;;;;;29.79;43.54;99635.09;20468817;28;98097;-78
2022/08/19 14:56:47;;;;;;;;;;;;;;;29.78;43.53;99652.94;20477947;28;100547;-79
2022/08/19 15:06:49;;;;;;;;;;;;;;;29.77;43.94;99688.69;20469283;28;101197;-76
2022/08/19 15:16:50;;;;;;;;;;;;;;;29.77;43.69;99711.84;20490948;28;99042;-75
2022/08/19 15:26:51;;;;;;;;;;;;;;;29.75;43.77;99744.06;20500817;28;98871;-75
2022/08/19 15:36:52;;;;;;;;;;;;;;;29.72;43.95;99768.44;20475395;28;98445;-76
2022/08/19 15:46:52;;;;;;;;;;;;;;;29.69;44.47;99748.31;20480006;28;98396;-76
2022/08/19 16:07:11;;;;;;;;;;;;;;;29.60;44.39;99672.13;20507125;28;97980;-76
2022/08/19 16:17:11;;;;;;;;;;;;;;;29.55;44.05;99662.03;20500257;27;97993;-76
2022/08/19 16:27:12;;;;;;;;;;;;;;;29.52;44.16;99665.06;20487615;28;98668;-75
2022/08/19 16:37:13;;;;;;;;;;;;;;;29.49;44.14;99697.47;20493114;28;97207;-76
2022/08/19 16:47:15;;;;;;;;;;;;;;;29.47;43.83;99744.00;20500435;28;102656;-74
2022/08/19 16:57:18;;;;;;;;;;;;;;;29.43;43.74;99788.91;20494907;28;100466;-76
2022/08/19 17:07:18;;;;;;;;;;;;;;;29.42;43.83;99829.06;20497071;28;101356;-74
2022/08/19 17:17:19;;;;;;;;;;;;;;;29.38;43.71;99791.28;20492163;28;98670;-77
2022/08/19 17:27:20;;;;;;;;;;;;;;;29.34;43.82;99729.50;20484242;28;98102;-76
2022/08/19 17:37:20;;;;;;;;;;;;;;;29.31;43.79;99697.06;20478207;28;97904;-75
2022/08/19 17:47:20;;;;;;;;;;;;;;;29.28;43.67;99636.09;20492019;28;97583;-76
2022/08/19 17:57:21;;;;;;;;;;;;;;;29.25;43.84;99631.97;20477593;28;98195;-74
2022/08/19 18:07:22;;;;;;;;;;;;;;;29.17;38.39;99659.56;20479667;28;97635;-75
2022/08/19 18:17:24;;;;;;;;;;;;;;;29.11;37.46;99688.84;20452762;28;98202;-75
2022/08/19 18:27:26;;;;;;;;;;;;;;;29.00;36.43;99816.25;20459552;28;97601;-74
2022/08/19 18:37:26;;;;;;;;;;;;;;;28.87;36.86;99918.16;20493431;28;97791;-76
2022/08/19 18:57:47;;;;;;;;;;;;;;;28.53;39.27;99950.56;20482177;27;98429;-77
2022/08/19 19:07:47;;;;;;;;;;;;;;;28.60;40.33;99895.56;20450627;28;98341;-77
2022/08/19 19:17:48;;;;;;;;;;;;;;;28.55;41.07;99853.47;20416921;28;99389;-77
2022/08/19 19:27:49;;;;;;;;;;;;;;;28.58;41.39;99838.97;20445462;28;99262;-74
2022/08/19 19:37:51;;;;;;;;;;;;;;;28.57;41.51;99808.84;20436277;27;101940;-77
2022/08/19 19:47:51;;;;;;;;;;;;;;;28.26;43.59;99799.16;20490156;28;98060;-83
2022/08/19 19:57:52;;;;;;;;;;;;;;;28.32;43.92;99784.31;20493172;27;99897;-81
2022/08/19 20:18:13;;;;;;;;;;;;;;;27.93;44.95;100059.34;20501211;28;98601;-75
2022/08/19 20:28:14;;;;;;;;;;;;;;;26.81;50.58;100067.91;20484157;28;99034;-76
2022/08/19 20:38:14;;;;;;;;;;;;;;;27.47;50.28;100090.00;20481937;28;97678;-75
2022/08/19 20:48:14;;;;;;;;;;;;;;;27.24;52.34;100095.16;20474214;27;97915;-74
2022/08/19 20:58:17;;;;;;;;;;;;;;;27.19;53.34;100118.75;20467625;28;97861;-75
2022/08/19 21:08:17;;;;;;;;;;;;;;;27.21;53.56;100081.34;20472708;28;102050;-75
2022/08/19 21:18:19;;;;;;;;;;;;;;;27.26;53.36;100061.25;20471294;28;98473;-74
2022/08/19 21:28:21;;;;;;;;;;;;;;;27.30;54.08;99972.19;20478939;28;98683;-74
2022/08/19 21:38:22;;;;;;;;;;;;;;;27.31;54.18;99962.41;20467151;28;97696;-74
2022/08/19 21:48:22;;;;;;;;;;;;;;;27.29;53.99;99912.06;20464435;28;97889;-74
2022/08/19 21:58:22;;;;;;;;;;;;;;;27.35;54.02;99899.09;20467616;28;97672;-74
2022/08/19 22:08:23;;;;;;;;;;;;;;;27.44;53.23;99874.16;20484967;28;98014;-75
2022/08/19 22:18:23;;;;;;;;;;;;;;;27.54;52.73;99850.00;20485405;28;99010;-73
2022/08/19 22:28:23;;;;;;;;;;;;;;;27.63;52.12;99799.25;20484692;28;101155;-73
2022/08/19 22:38:26;;;;;;;;;;;;;;;27.70;51.61;99775.44;20452552;28;98777;-74
2022/08/19 22:48:28;;;;;;;;;;;;;;;27.75;52.50;99761.63;20444929;28;99151;-74
2022/08/19 22:58:29;;;;;;;;;;;;;;;27.72;53.16;99744.19;20442287;28;99129;-75
2022/08/19 23:08:35;;;;;;;;;;;;;;;27.66;53.38;99710.31;20441517;28;98626;-75
2022/08/19 23:18:35;;;;;;;;;;;;;;;27.61;53.64;99723.31;20443017;28;98904;-75
2022/08/19 23:38:57;;;;;;;;;;;;;;;27.50;54.45;99745.81;20436518;28;107364;-75
2022/08/19 23:48:58;;;;;;;;;;;;;;;27.48;54.46;99730.03;20432216;28;99352;-75
2022/08/19 23:58:58;;;;;;;;;;;;;;;27.47;54.67;99733.72;20436201;28;100925;-74
